Forest City, Washington
Current Conditions -  °F | °C
As of 2:35 AM on Friday 24 Oct 2014 (Local Time) from KPWT Reporting Station
Overcast Overcast  
Wind Chill: 46°   Ceiling: 500
Heat Index: 46°   Visibility: 10mi
Dew Point: 46°   Wind: 3mph
Humidity: 100%   Direction: 160°SSE
Pressure: 30.04"   Gusts: NA
Location:  47.5378°N, 122.589°W
Report Text: KPWT 240935Z AUTO 16003KT 10SM BKN005 OVC070 08/08 A3004 RMK AO1
Loading
Personal Weather Stations






























Interactive Weather Map
Tropical Storm Tracking
New forecast layout! Learn more

10-Day Weather Forecast

Advertisements
Track Severe Weather on mobile